createdAt,value
2023-05-07T00:02:19.326Z,2.30
2023-05-07T00:04:46.362Z,1.95
2023-05-07T00:07:12.904Z,1.77
2023-05-07T00:09:39.355Z,2.00
2023-05-07T00:12:06.024Z,2.00
2023-05-07T00:14:32.567Z,2.22
2023-05-07T00:16:59.271Z,2.22
2023-05-07T00:19:25.855Z,1.90
2023-05-07T00:21:54.470Z,1.90
2023-05-07T00:24:20.956Z,1.73
2023-05-07T00:26:47.437Z,2.30
2023-05-07T00:29:13.906Z,1.80
2023-05-07T00:31:40.505Z,2.03
2023-05-07T00:34:07.191Z,2.22
2023-05-07T00:36:33.640Z,1.75
2023-05-07T00:39:01.182Z,1.92
2023-05-07T00:41:27.713Z,2.22
2023-05-07T00:43:54.279Z,2.13
2023-05-07T00:46:21.879Z,2.28
2023-05-07T00:48:48.374Z,1.90
2023-05-07T00:51:14.865Z,2.28
2023-05-07T00:53:41.387Z,2.05
2023-05-07T00:56:08.147Z,2.30
2023-05-07T00:58:34.677Z,2.10
2023-05-07T01:01:01.258Z,1.98
2023-05-07T01:03:27.817Z,2.50
2023-05-07T01:05:54.501Z,2.22
2023-05-07T01:08:21.614Z,2.30
2023-05-07T01:10:48.078Z,2.38
2023-05-07T01:13:14.652Z,2.55
2023-05-07T01:15:43.937Z,2.42
2023-05-07T01:18:10.430Z,2.20
2023-05-07T01:20:38.041Z,2.50
2023-05-07T01:23:04.578Z,3.05
2023-05-07T01:25:31.945Z,2.70
2023-05-07T01:28:00.379Z,2.40
2023-05-07T01:30:26.843Z,2.47
2023-05-07T01:32:57.937Z,2.30
2023-05-07T01:35:27.994Z,2.10
2023-05-07T01:37:54.443Z,2.38
2023-05-07T01:40:20.963Z,2.60
2023-05-07T01:42:47.749Z,2.45
2023-05-07T01:45:14.201Z,2.40
2023-05-07T01:47:40.757Z,2.63
2023-05-07T01:50:09.663Z,2.60
2023-05-07T01:52:38.410Z,2.60
2023-05-07T01:55:05.823Z,2.17
2023-05-07T01:57:32.369Z,2.05
2023-05-07T01:59:58.877Z,2.60
2023-05-07T02:02:25.542Z,2.70
2023-05-07T02:04:52.082Z,2.20
2023-05-07T02:07:18.929Z,2.53
2023-05-07T02:09:45.500Z,2.28
2023-05-07T02:12:11.970Z,2.13
2023-05-07T02:14:38.421Z,2.15
2023-05-07T02:17:04.911Z,2.05
2023-05-07T02:19:31.363Z,2.33
2023-05-07T02:21:57.865Z,2.78
2023-05-07T02:24:24.341Z,2.47
2023-05-07T02:26:50.806Z,2.40
2023-05-07T02:29:17.315Z,2.13
2023-05-07T02:31:43.826Z,2.28
2023-05-07T02:34:10.295Z,2.20
2023-05-07T02:36:36.781Z,2.30
2023-05-07T02:39:03.679Z,2.45
2023-05-07T02:41:30.234Z,2.42
2023-05-07T02:43:56.706Z,2.65
2023-05-07T02:46:23.297Z,2.67
2023-05-07T02:48:49.934Z,2.17
2023-05-07T02:51:21.846Z,2.42
2023-05-07T02:53:49.401Z,2.50
2023-05-07T02:56:15.853Z,2.60
2023-05-07T02:58:43.094Z,2.50
2023-05-07T03:01:09.910Z,2.55
2023-05-07T03:03:36.574Z,2.88
2023-05-07T03:06:03.141Z,2.70
2023-05-07T03:08:29.624Z,2.63
2023-05-07T03:10:56.182Z,3.15
2023-05-07T03:13:22.752Z,3.15
2023-05-07T03:15:49.283Z,3.28
2023-05-07T03:18:15.877Z,3.70
2023-05-07T03:20:42.519Z,2.80
2023-05-07T03:23:09.020Z,3.05
2023-05-07T03:25:35.871Z,2.88
2023-05-07T03:28:02.387Z,3.10
2023-05-07T03:30:28.919Z,2.78
2023-05-07T03:32:55.410Z,3.10
2023-05-07T03:35:21.938Z,2.70
2023-05-07T03:37:48.403Z,2.80
2023-05-07T03:40:15.170Z,2.80
2023-05-07T03:42:41.746Z,2.97
2023-05-07T03:45:09.054Z,3.33
2023-05-07T03:47:35.885Z,3.05
2023-05-07T03:50:02.512Z,3.15
2023-05-07T03:52:29.035Z,3.30
2023-05-07T03:54:55.662Z,3.50
2023-05-07T03:57:22.118Z,3.25
2023-05-07T03:59:48.626Z,3.40
2023-05-07T04:02:15.159Z,3.40
2023-05-07T04:04:41.648Z,3.25
2023-05-07T04:07:08.405Z,2.80
2023-05-07T04:09:34.911Z,3.00
2023-05-07T04:12:02.255Z,2.00
2023-05-07T04:14:28.790Z,2.25
2023-05-07T04:16:55.628Z,1.95
2023-05-07T04:19:22.095Z,2.10
2023-05-07T04:21:48.572Z,2.30
2023-05-07T04:24:15.024Z,2.10
2023-05-07T04:26:41.674Z,2.00
2023-05-07T04:29:08.150Z,2.13
2023-05-07T04:31:34.711Z,1.95
2023-05-07T04:34:01.826Z,1.80
2023-05-07T04:36:28.759Z,1.80
2023-05-07T04:38:55.469Z,2.25
2023-05-07T04:41:22.113Z,2.10
2023-05-07T04:43:48.686Z,2.00
2023-05-07T04:46:15.214Z,1.80
2023-05-07T04:48:41.713Z,1.88
2023-05-07T04:51:08.400Z,2.10
2023-05-07T04:53:34.908Z,2.20
2023-05-07T04:56:01.375Z,2.00
2023-05-07T04:58:28.285Z,2.00
2023-05-07T05:00:54.727Z,1.80
2023-05-07T05:03:21.347Z,2.30
2023-05-07T05:05:49.716Z,1.75
2023-05-07T05:08:16.356Z,1.85
2023-05-07T05:10:44.270Z,2.00
2023-05-07T05:13:13.571Z,1.65
2023-05-07T05:15:40.189Z,1.70
2023-05-07T05:18:06.721Z,1.70
2023-05-07T05:20:33.295Z,1.60
2023-05-07T05:22:59.839Z,1.55
2023-05-07T05:25:26.322Z,1.60
2023-05-07T05:27:52.767Z,1.65
2023-05-07T05:30:21.160Z,1.70
2023-05-07T05:32:47.847Z,1.90
2023-05-07T05:35:14.807Z,2.30
2023-05-07T05:37:41.470Z,2.10
2023-05-07T05:40:08.572Z,1.55
2023-05-07T05:42:35.211Z,1.65
2023-05-07T05:45:01.677Z,1.77
2023-05-07T05:47:28.183Z,2.00
2023-05-07T05:49:54.701Z,2.40
2023-05-07T05:52:21.322Z,2.25
2023-05-07T05:54:47.778Z,3.03
2023-05-07T05:57:14.413Z,2.50
2023-05-07T05:59:40.907Z,2.50
2023-05-07T06:02:07.801Z,2.72
2023-05-07T06:04:34.285Z,2.40
2023-05-07T06:07:00.827Z,2.55
2023-05-07T06:09:27.290Z,2.88
2023-05-07T06:11:53.766Z,2.30
2023-05-07T06:14:20.227Z,2.65
2023-05-07T06:16:46.780Z,3.10
2023-05-07T06:19:13.330Z,2.85
2023-05-07T06:21:40.292Z,2.83
2023-05-07T06:24:07.156Z,2.20
2023-05-07T06:26:33.611Z,2.70
2023-05-07T06:29:00.157Z,2.20
2023-05-07T06:31:30.760Z,2.30
2023-05-07T06:33:57.336Z,2.30
2023-05-07T06:36:23.853Z,1.85
2023-05-07T06:38:50.353Z,2.08
2023-05-07T06:41:16.817Z,2.70
2023-05-07T06:43:43.296Z,2.53
2023-05-07T06:46:09.830Z,2.50
2023-05-07T06:48:36.311Z,2.50
2023-05-07T06:51:02.818Z,2.25
2023-05-07T06:53:30.258Z,2.17
2023-05-07T06:55:56.769Z,2.15
2023-05-07T06:58:23.557Z,2.38
2023-05-07T07:00:50.043Z,2.10
2023-05-07T07:03:16.676Z,2.28
2023-05-07T07:05:43.248Z,2.30
2023-05-07T07:08:10.286Z,2.75
2023-05-07T07:10:36.770Z,2.45
2023-05-07T07:13:03.314Z,2.53
2023-05-07T07:15:29.786Z,2.30
2023-05-07T07:17:56.384Z,2.63
2023-05-07T07:20:22.904Z,3.03
2023-05-07T07:22:49.392Z,2.90
2023-05-07T07:25:16.021Z,2.45
2023-05-07T07:27:42.517Z,2.40
2023-05-07T07:30:09.472Z,2.78
2023-05-07T07:32:36.398Z,2.53
2023-05-07T07:35:03.263Z,2.53
2023-05-07T07:37:30.614Z,2.60
2023-05-07T07:39:57.164Z,2.53
2023-05-07T07:42:23.739Z,2.70
2023-05-07T07:44:50.227Z,2.50
2023-05-07T07:47:16.737Z,3.00
2023-05-07T07:49:43.351Z,2.58
2023-05-07T07:52:09.841Z,2.28
2023-05-07T07:54:36.335Z,2.22
2023-05-07T07:57:02.828Z,2.13
2023-05-07T07:59:29.305Z,1.95
2023-05-07T08:01:56.679Z,2.13
2023-05-07T08:04:23.378Z,2.22
2023-05-07T08:06:49.900Z,2.13
2023-05-07T08:09:16.364Z,2.17
2023-05-07T08:11:42.835Z,1.80
2023-05-07T08:14:09.341Z,2.50
2023-05-07T08:16:35.812Z,2.25
2023-05-07T08:19:02.315Z,2.35
2023-05-07T08:21:28.795Z,2.53
2023-05-07T08:23:55.358Z,2.40
2023-05-07T08:26:21.916Z,2.88
2023-05-07T08:28:48.366Z,2.72
2023-05-07T08:31:14.863Z,2.67
2023-05-07T08:33:41.432Z,2.72
2023-05-07T08:36:08.095Z,2.60
2023-05-07T08:38:34.590Z,2.95
2023-05-07T08:41:01.114Z,3.40
2023-05-07T08:43:27.925Z,2.78
2023-05-07T08:45:57.548Z,3.05
2023-05-07T08:48:26.302Z,2.75
2023-05-07T08:50:52.800Z,2.63
2023-05-07T08:53:19.280Z,2.78
2023-05-07T08:55:46.261Z,2.70
2023-05-07T08:58:12.782Z,2.53
2023-05-07T09:00:39.273Z,2.33
2023-05-07T09:03:05.832Z,2.30
2023-05-07T09:05:32.412Z,2.47
2023-05-07T09:08:03.183Z,2.55
2023-05-07T09:10:30.334Z,1.85
2023-05-07T09:12:57.029Z,2.30
2023-05-07T09:15:23.538Z,2.00
2023-05-07T09:17:50.081Z,1.95
2023-05-07T09:20:16.598Z,2.13
2023-05-07T09:22:43.671Z,1.95
2023-05-07T09:25:10.620Z,2.10
2023-05-07T09:27:37.643Z,2.15
2023-05-07T09:30:06.146Z,2.17
2023-05-07T09:32:35.773Z,2.00
2023-05-07T09:35:03.371Z,2.50
2023-05-07T09:37:31.479Z,2.30
2023-05-07T09:39:57.967Z,2.10
2023-05-07T09:42:25.732Z,2.10
2023-05-07T09:44:52.193Z,2.05
2023-05-07T09:47:20.006Z,2.80
2023-05-07T09:49:48.820Z,1.90
2023-05-07T09:52:15.376Z,2.33
2023-05-07T09:54:43.935Z,2.38
2023-05-07T09:57:13.270Z,2.25
2023-05-07T09:59:39.738Z,2.33
2023-05-07T10:02:07.198Z,1.85
2023-05-07T10:04:33.814Z,2.22
2023-05-07T10:07:00.339Z,2.25
2023-05-07T10:09:26.995Z,1.88
2023-05-07T10:11:53.872Z,2.10
2023-05-07T10:14:23.554Z,2.40
2023-05-07T10:16:50.137Z,1.90
2023-05-07T10:19:16.618Z,1.90
2023-05-07T10:21:46.071Z,1.90
2023-05-07T10:24:26.045Z,1.90
2023-05-07T10:26:53.232Z,1.70
2023-05-07T10:29:40.384Z,2.45
2023-05-07T10:32:12.901Z,1.92
2023-05-07T10:34:41.708Z,2.00
2023-05-07T10:37:08.177Z,2.10
2023-05-07T10:39:35.179Z,2.30
2023-05-07T10:42:11.476Z,2.05
2023-05-07T10:44:38.421Z,1.90
2023-05-07T10:47:10.201Z,2.28
2023-05-07T10:49:38.086Z,2.30
2023-05-07T10:52:17.822Z,2.67
2023-05-07T10:54:47.256Z,1.95
2023-05-07T10:57:31.960Z,1.95
2023-05-07T10:59:59.361Z,2.35
2023-05-07T11:03:01.117Z,2.90
2023-05-07T11:05:29.401Z,2.42
2023-05-07T11:07:56.740Z,2.90
2023-05-07T11:10:23.205Z,2.80
2023-05-07T11:12:50.611Z,3.40
2023-05-07T11:15:34.820Z,3.08
2023-05-07T11:18:01.343Z,3.47
2023-05-07T11:20:53.673Z,3.80
2023-05-07T11:23:38.748Z,3.72
2023-05-07T11:26:05.860Z,3.17
2023-05-07T11:28:32.635Z,3.28
2023-05-07T11:30:59.146Z,3.40
2023-05-07T11:33:26.561Z,3.10
2023-05-07T11:35:54.421Z,3.90
2023-05-07T11:38:21.060Z,3.67
2023-05-07T11:40:54.628Z,3.80
2023-05-07T11:43:21.207Z,3.72
2023-05-07T11:45:47.764Z,3.90
2023-05-07T11:48:14.538Z,3.67
2023-05-07T11:50:59.217Z,4.53
2023-05-07T11:53:26.061Z,3.53
2023-05-07T11:55:58.603Z,4.55
2023-05-07T11:58:25.511Z,3.78
2023-05-07T12:00:55.109Z,3.95
2023-05-07T12:03:22.131Z,3.33
2023-05-07T12:05:48.795Z,3.00
2023-05-07T12:08:18.770Z,2.50
2023-05-07T12:10:45.763Z,2.65
2023-05-07T12:13:19.001Z,2.70
2023-05-07T12:15:45.657Z,2.25
2023-05-07T12:18:12.715Z,2.30
2023-05-07T12:20:39.469Z,2.75
2023-05-07T12:23:06.168Z,2.53
2023-05-07T12:25:33.338Z,2.95
2023-05-07T12:28:01.701Z,3.42
2023-05-07T12:30:28.172Z,3.75
2023-05-07T12:32:55.251Z,3.80
2023-05-07T12:35:41.122Z,3.42
2023-05-07T12:38:18.310Z,3.75
2023-05-07T12:40:48.407Z,3.60
2023-05-07T12:43:27.632Z,3.90
2023-05-07T12:45:58.682Z,4.10
2023-05-07T12:48:27.848Z,3.80
2023-05-07T12:50:54.456Z,3.83
2023-05-07T12:53:22.069Z,4.00
2023-05-07T12:55:49.893Z,3.45
2023-05-07T12:58:17.706Z,2.95
2023-05-07T13:00:44.566Z,3.90
2023-05-07T13:03:11.897Z,4.28
2023-05-07T13:05:38.498Z,3.80
2023-05-07T13:08:05.156Z,4.43
2023-05-07T13:10:31.681Z,4.50
2023-05-07T13:12:58.214Z,4.40
2023-05-07T13:15:24.779Z,4.20
2023-05-07T13:17:51.570Z,3.10
2023-05-07T13:20:18.253Z,3.45
2023-05-07T13:22:44.736Z,3.22
2023-05-07T13:25:11.406Z,4.38
2023-05-07T13:27:38.151Z,3.45
2023-05-07T13:30:05.781Z,3.60
2023-05-07T13:32:32.608Z,3.72
2023-05-07T13:34:59.324Z,3.47
2023-05-07T13:37:26.021Z,3.85
2023-05-07T13:39:52.548Z,3.70
2023-05-07T13:42:19.002Z,4.35
2023-05-07T13:44:45.470Z,4.80
2023-05-07T13:47:12.040Z,5.53
2023-05-07T13:49:38.573Z,4.97
2023-05-07T13:52:05.296Z,4.85
2023-05-07T13:54:31.750Z,4.85
2023-05-07T13:56:58.208Z,4.93
2023-05-07T13:59:24.665Z,4.90
2023-05-07T14:01:51.159Z,4.32
2023-05-07T14:04:17.605Z,4.03
2023-05-07T14:06:44.072Z,3.30
2023-05-07T14:09:13.113Z,3.53
2023-05-07T14:11:39.925Z,2.38
2023-05-07T14:14:06.596Z,1.90
2023-05-07T14:16:33.132Z,2.17
2023-05-07T14:18:59.604Z,2.00
2023-05-07T14:21:26.249Z,1.88
2023-05-07T14:23:52.767Z,1.75
2023-05-07T14:26:19.986Z,1.80
2023-05-07T14:28:47.303Z,1.85
2023-05-07T14:31:14.006Z,1.63
2023-05-07T14:33:42.020Z,1.25
2023-05-07T14:36:08.845Z,1.20
2023-05-07T14:38:35.405Z,1.15
2023-05-07T14:41:02.057Z,1.20
2023-05-07T14:43:28.612Z,1.17
2023-05-07T14:45:55.160Z,1.30
2023-05-07T14:48:21.717Z,1.33
2023-05-07T14:50:49.204Z,1.30
2023-05-07T14:53:16.276Z,1.20
2023-05-07T14:55:42.873Z,1.50
2023-05-07T14:58:09.433Z,1.45
2023-05-07T15:00:35.969Z,1.52
2023-05-07T15:03:11.615Z,1.60
2023-05-07T15:05:38.531Z,1.20
2023-05-07T15:08:05.192Z,1.60
2023-05-07T15:10:31.652Z,1.27
2023-05-07T15:12:58.167Z,1.40
2023-05-07T15:15:24.743Z,1.20
2023-05-07T15:17:51.425Z,1.23
2023-05-07T15:20:18.528Z,1.40
2023-05-07T15:22:45.059Z,1.10
2023-05-07T15:25:12.702Z,1.60
2023-05-07T15:27:39.522Z,1.55
2023-05-07T15:30:06.774Z,1.67
2023-05-07T15:32:33.244Z,1.90
2023-05-07T15:34:59.739Z,1.90
2023-05-07T15:37:26.210Z,1.45
2023-05-07T15:39:52.700Z,1.63
2023-05-07T15:42:19.168Z,1.80
2023-05-07T15:44:45.725Z,1.83
2023-05-07T15:47:14.884Z,1.90
2023-05-07T15:49:42.128Z,1.80
2023-05-07T15:52:11.336Z,1.63
2023-05-07T15:54:40.851Z,1.50
2023-05-07T15:57:07.330Z,1.45
2023-05-07T15:59:34.159Z,1.77
2023-05-07T16:02:01.209Z,1.60
2023-05-07T16:04:28.165Z,1.83
2023-05-07T16:06:54.736Z,1.60
2023-05-07T16:09:21.462Z,1.60
2023-05-07T16:11:48.566Z,1.90
2023-05-07T16:14:15.036Z,1.45
2023-05-07T16:16:41.593Z,1.50
2023-05-07T16:19:08.070Z,1.27
2023-05-07T16:21:35.480Z,1.30
2023-05-07T16:24:02.360Z,3.38
2023-05-07T16:26:29.264Z,5.35
2023-05-07T16:28:55.842Z,2.13
2023-05-07T16:31:22.422Z,5.75
2023-05-07T16:33:48.896Z,1.52
2023-05-07T16:36:15.383Z,1.40
2023-05-07T16:38:41.864Z,1.30
2023-05-07T16:41:08.423Z,1.38
2023-05-07T16:43:34.874Z,2.40
2023-05-07T16:46:01.423Z,7.70
2023-05-07T16:48:27.945Z,8.02
2023-05-07T16:50:54.409Z,14.07
2023-05-07T16:53:20.951Z,3.40
2023-05-07T16:55:47.422Z,2.05
2023-05-07T16:58:15.312Z,1.92
2023-05-07T17:00:50.785Z,2.60
2023-05-07T17:03:18.279Z,1.73
2023-05-07T17:05:47.982Z,1.70
2023-05-07T17:08:14.673Z,1.80
2023-05-07T17:10:41.454Z,3.15
2023-05-07T17:13:08.024Z,2.85
2023-05-07T17:15:34.580Z,2.40
2023-05-07T17:18:01.095Z,5.65
2023-05-07T17:20:27.633Z,1.90
2023-05-07T17:22:54.109Z,1.75
2023-05-07T17:25:20.982Z,1.95
2023-05-07T17:27:47.468Z,2.60
2023-05-07T17:30:15.327Z,1.95
2023-05-07T17:32:42.464Z,2.40
2023-05-07T17:35:09.164Z,2.10
2023-05-07T17:37:35.692Z,2.28
2023-05-07T17:40:02.989Z,1.70
2023-05-07T17:42:29.593Z,1.92
2023-05-07T17:44:56.280Z,1.88
2023-05-07T17:47:22.832Z,1.50
2023-05-07T17:49:49.413Z,5.88
2023-05-07T17:52:15.909Z,3.28
2023-05-07T17:54:42.428Z,7.88
2023-05-07T17:57:08.908Z,2.03
2023-05-07T17:59:35.398Z,2.65
2023-05-07T18:02:01.937Z,3.47
2023-05-07T18:04:28.460Z,6.38
2023-05-07T18:06:54.958Z,2.35
2023-05-07T18:09:21.416Z,2.88
2023-05-07T18:11:47.890Z,2.50
2023-05-07T18:14:14.353Z,2.25
2023-05-07T18:16:40.923Z,1.38
2023-05-07T18:19:07.630Z,1.40
2023-05-07T18:21:34.093Z,2.03
2023-05-07T18:24:00.659Z,1.60
2023-05-07T18:26:27.324Z,1.88
2023-05-07T18:28:54.083Z,2.30
2023-05-07T18:31:21.352Z,2.10
2023-05-07T18:33:47.854Z,2.50
2023-05-07T18:36:14.356Z,1.85
2023-05-07T18:38:42.564Z,1.88
2023-05-07T18:41:09.123Z,2.05
2023-05-07T18:43:35.709Z,2.45
2023-05-07T18:46:02.261Z,3.65
2023-05-07T18:48:28.790Z,2.30
2023-05-07T18:50:55.469Z,7.82
2023-05-07T18:53:21.950Z,9.55
2023-05-07T18:55:52.223Z,5.68
2023-05-07T18:58:19.930Z,2.08
2023-05-07T19:00:50.079Z,2.55
2023-05-07T19:03:17.103Z,2.60
2023-05-07T19:05:44.087Z,2.25
2023-05-07T19:08:10.632Z,2.63
2023-05-07T19:10:37.222Z,2.67
2023-05-07T19:13:03.731Z,2.40
2023-05-07T19:15:30.251Z,2.15
2023-05-07T19:17:56.846Z,2.63
2023-05-07T19:20:23.393Z,1.85
2023-05-07T19:22:49.843Z,1.95
2023-05-07T19:25:18.095Z,2.17
2023-05-07T19:27:44.548Z,2.13
2023-05-07T19:30:11.491Z,1.85
2023-05-07T19:32:38.412Z,2.10
2023-05-07T19:35:05.267Z,1.92
2023-05-07T19:37:31.756Z,2.00
2023-05-07T19:39:58.225Z,2.10
2023-05-07T19:42:24.772Z,2.40
2023-05-07T19:44:51.275Z,1.92
2023-05-07T19:47:17.756Z,1.80
2023-05-07T19:49:44.297Z,2.40
2023-05-07T19:52:10.915Z,2.10
2023-05-07T19:54:37.427Z,2.00
2023-05-07T19:57:03.888Z,1.80
2023-05-07T19:59:30.537Z,2.05
2023-05-07T20:01:57.178Z,1.90
2023-05-07T20:04:29.088Z,1.67
2023-05-07T20:06:56.171Z,1.73
2023-05-07T20:09:22.628Z,1.60
2023-05-07T20:11:49.115Z,1.88
2023-05-07T20:14:15.658Z,2.08
2023-05-07T20:16:42.225Z,2.10
2023-05-07T20:19:08.820Z,4.22
2023-05-07T20:21:35.368Z,3.83
2023-05-07T20:24:02.060Z,10.60
2023-05-07T20:26:28.541Z,3.70
2023-05-07T20:28:55.041Z,2.08
2023-05-07T20:31:21.585Z,1.95
2023-05-07T20:33:48.067Z,1.65
2023-05-07T20:36:14.578Z,1.70
2023-05-07T20:38:41.147Z,1.50
2023-05-07T20:41:08.400Z,1.50
2023-05-07T20:43:35.599Z,1.55
2023-05-07T20:46:02.620Z,1.35
2023-05-07T20:48:30.748Z,1.25
2023-05-07T20:50:57.803Z,1.20
2023-05-07T20:53:24.349Z,1.10
2023-05-07T20:55:50.844Z,1.10
2023-05-07T20:58:18.104Z,1.10
2023-05-07T21:00:44.632Z,1.20
2023-05-07T21:03:11.223Z,0.85
2023-05-07T21:05:37.729Z,0.90
2023-05-07T21:08:04.925Z,0.98
2023-05-07T21:10:31.398Z,0.80
2023-05-07T21:12:57.897Z,0.73
2023-05-07T21:15:24.395Z,0.82
2023-05-07T21:17:50.913Z,0.63
2023-05-07T21:20:17.488Z,0.70
2023-05-07T21:22:43.946Z,0.80
2023-05-07T21:25:12.572Z,0.73
2023-05-07T21:27:39.830Z,0.70
2023-05-07T21:30:06.967Z,0.80
2023-05-07T21:32:33.470Z,0.70
2023-05-07T21:35:00.899Z,0.68
2023-05-07T21:37:27.353Z,0.60
2023-05-07T21:39:53.809Z,0.60
2023-05-07T21:42:21.828Z,0.77
2023-05-07T21:44:49.565Z,0.70
2023-05-07T21:47:16.040Z,0.52
2023-05-07T21:49:42.678Z,0.60
2023-05-07T21:52:12.779Z,0.60
2023-05-07T21:54:39.366Z,0.60
2023-05-07T21:57:05.885Z,0.60
2023-05-07T21:59:34.099Z,0.50
2023-05-07T22:02:01.072Z,0.50
2023-05-07T22:04:27.672Z,0.60
2023-05-07T22:06:54.163Z,0.40
2023-05-07T22:09:20.934Z,0.50
2023-05-07T22:11:47.435Z,0.60
2023-05-07T22:14:13.967Z,0.90
2023-05-07T22:16:40.922Z,0.80
2023-05-07T22:19:07.450Z,1.00
2023-05-07T22:21:33.934Z,1.20
2023-05-07T22:24:00.570Z,1.42
2023-05-07T22:26:27.339Z,2.00
2023-05-07T22:28:53.815Z,2.20
2023-05-07T22:31:20.292Z,2.10
2023-05-07T22:33:46.774Z,2.00
2023-05-07T22:36:13.298Z,1.80
2023-05-07T22:38:39.822Z,2.50
2023-05-07T22:41:06.276Z,1.80
2023-05-07T22:43:32.777Z,2.40
2023-05-07T22:46:00.993Z,3.08
2023-05-07T22:48:28.779Z,2.38
2023-05-07T22:50:55.379Z,3.05
2023-05-07T22:53:21.888Z,2.53
2023-05-07T22:55:48.352Z,2.92
2023-05-07T22:58:14.854Z,2.70
2023-05-07T23:00:41.330Z,3.13
2023-05-07T23:03:08.041Z,2.90
2023-05-07T23:05:34.782Z,3.47
2023-05-07T23:08:01.253Z,4.30
2023-05-07T23:10:27.750Z,8.82
2023-05-07T23:12:54.572Z,13.63
2023-05-07T23:15:21.278Z,12.82
2023-05-07T23:17:47.886Z,10.13
2023-05-07T23:20:14.655Z,8.05
2023-05-07T23:22:41.835Z,19.85
2023-05-07T23:25:11.445Z,6.68
2023-05-07T23:27:37.958Z,3.70
2023-05-07T23:30:04.879Z,2.88
2023-05-07T23:32:31.899Z,3.30
2023-05-07T23:34:58.441Z,5.97
2023-05-07T23:37:25.011Z,4.05
2023-05-07T23:39:54.689Z,3.25
2023-05-07T23:42:21.227Z,3.20
2023-05-07T23:44:47.709Z,2.70
2023-05-07T23:47:14.231Z,3.00
2023-05-07T23:49:40.692Z,3.10
2023-05-07T23:52:07.205Z,2.30
2023-05-07T23:54:33.650Z,2.40
2023-05-07T23:57:00.148Z,2.13
2023-05-07T23:59:26.620Z,2.00
